Home PIREPS Pireps

Flight SAB2263

  • Submitted By: AndrĂ© Vincent
  • Departure Airport: Bruxelles National (EBBR)
  • Arrival Airport: Kastrup (EKCH)
  • Aircraft: B737-500 (OO-SAB)
  • Flight Time: 01.26
  • Date Submitted: 19/07/2016
  • Status: Accepted
Flight Details
Gross Revenue:
(116 load / € 0.00 per unit
€ 0.00
Fuel Cost:
(6587 fuel used @ 5.1 / unit)
€ 33,593.70

Additional Log Information:

View Log

Aircraft Used in flight is Boeing 737-800 sabena paint
17:20 Engine 1 Started
17:20 Engine 2 Started
17:20 Strobe Lights ON at 190 AGL
17:20 Beacon Lights ON at 190 AGL
17:20 Brakes are On
17:20Flaps 1 Selected at 190ft and 0kts
17:20Flaps 2 Selected at 190ft and 0kts
17:21 Brakes are Released
17:24 You Took off @ 207 Knots and Flaps at Position 2
Departure Weather
EBBR 191450Z 16004KT 090V210 CAVOK 30/16 Q1018 NOSIGrn
17:24 You are Airborne and your Navigation Lights are off
17:24 Landing Gear Up @ 211 Knots and 250 Feet
17:25Flaps 1 Selected at 2280ft and 250kts
17:25Flaps Retracted at 2330ft and 251kts
17:27 Below 10000 feet you are not allowed to go over 250 knots
17:28 Above FL100 you need to switch of the landing lights
18:17Flaps 1 Selected at 22200ft and 247kts
18:17Flaps 2 Selected at 22150ft and 246kts
18:20Flaps 3 Selected at 18910ft and 234kts
18:20 You exceeded maximum bank angle
18:26 Above FL100 you need to switch of the landing lights
18:27 Spoilers Armed
18:29Flaps 4 Selected at 5090ft and 204kts
18:30Flaps 5 Selected at 4980ft and 188kts
18:33Flaps 6 Selected at 3020ft and 157kts
18:34Flaps 7 Selected at 3010ft and 151kts
18:36 Landing Gear Down @ 148 Knots and 2990 Feet
18:36Flaps 8 Selected at 2990ft and 146kts
18:41 Spoilers Disarmed
18:41 You Landed @ 123 Knots and with -300 Vertical Speed
Arrival Weather
EKCH 191620Z 20005KT 9999 FEW024 BKN042 19/15 Q1020 NOSIGrn
18:41Flaps Retracted at 30ft and 82kts
18:45 Brakes are On
18:45 Beacon Lights OFF at 30 AGL
18:45 Strobe Lights OFF at 30 AGL
18:45 Engine 2 Stoped
18:46 Engine 1 Stoped
18:46 Brussels Bel-Track1.0.0.11

Route Map

Corporate About Us Our Team Vacancies Information Fleet Route Network Rules and Regulations Operations Flight Schedules Event Center Tours Partners IVAO Vatsim Acars dev FSCB

fb Users Online No pilots online!
0 Pilot(s) and 113 Guest(s) Online
CMS by phpVMS - Design by Crazycreatives.com - Copyright © 2018 - Brussels Airlines Virtual